Time;durP1;ratioP1;P1;durP2;ratioP2;P2;SDS_P1;SDS_P2;PMS_P1;PMS_P2;Temp;Humidity;BMP_temperature;BMP_pressure;BME280_temperature;BME280_humidity;BME280_pressure;Samples;Min_cycle;Max_cycle;Signal;HPM_P1;HPM_P2
2022/10/25 00:00:29;;;;;;;5.03;4.63;;;13.20;99.90;;;;;;6185346;23;20190;-88
2022/10/25 00:02:58;;;;;;;4.85;4.28;;;13.20;99.90;;;;;;6185721;23;20370;-88
2022/10/25 00:05:27;;;;;;;5.35;4.88;;;13.20;99.90;;;;;;6185166;23;20170;-89
2022/10/25 00:07:55;;;;;;;5.40;4.68;;;13.20;99.90;;;;;;6186076;23;20214;-89
2022/10/25 00:10:23;;;;;;;5.18;4.68;;;13.20;99.90;;;;;;6185166;23;20194;-88
2022/10/25 00:12:52;;;;;;;5.50;5.00;;;13.20;99.90;;;;;;6184880;23;20177;-89
2022/10/25 00:15:23;;;;;;;6.35;4.45;;;13.20;99.90;;;;;;6185144;23;20178;-88
2022/10/25 00:17:51;;;;;;;6.60;4.07;;;13.20;99.90;;;;;;6185001;23;20175;-89
2022/10/25 00:20:21;;;;;;;4.68;4.28;;;13.20;99.90;;;;;;6184718;23;20194;-88
2022/10/25 00:22:49;;;;;;;4.10;3.80;;;13.20;99.90;;;;;;6184725;23;20195;-89
2022/10/25 00:25:17;;;;;;;3.53;3.33;;;13.20;99.90;;;;;;6184968;23;20186;-89
2022/10/25 00:27:46;;;;;;;4.75;3.50;;;13.20;99.90;;;;;;6184821;23;20174;-88
2022/10/25 00:30:14;;;;;;;13.75;3.53;;;13.20;99.90;;;;;;6184352;23;20194;-88
2022/10/25 00:32:42;;;;;;;3.47;3.17;;;13.20;99.90;;;;;;6184640;23;20178;-89
2022/10/25 00:35:11;;;;;;;3.30;3.00;;;13.10;99.90;;;;;;6185233;23;20174;-89
2022/10/25 00:37:41;;;;;;;3.53;3.22;;;13.10;99.90;;;;;;6184700;23;20170;-89
2022/10/25 00:40:10;;;;;;;2.80;2.60;;;13.20;99.90;;;;;;6184551;23;20191;-89
2022/10/25 00:42:38;;;;;;;3.17;2.90;;;13.20;99.90;;;;;;6184338;23;20191;-88
2022/10/25 00:45:19;;;;;;;3.00;2.72;;;13.10;99.90;;;;;;6184810;23;20171;-89
2022/10/25 00:47:51;;;;;;;3.08;2.83;;;13.10;99.90;;;;;;6184992;23;20174;-88
2022/10/25 00:50:32;;;;;;;2.47;2.28;;;13.10;99.90;;;;;;6184755;23;20201;-88
2022/10/25 00:53:07;;;;;;;2.85;2.40;;;13.10;99.90;;;;;;6188570;23;20174;-88
2022/10/25 00:55:37;;;;;;;2.17;2.00;;;13.10;99.90;;;;;;6186609;23;20274;-88
2022/10/25 00:58:09;;;;;;;2.13;2.03;;;13.10;99.90;;;;;;6184761;23;20167;-89
2022/10/25 01:00:38;;;;;;;2.47;2.17;;;13.10;99.90;;;;;;6184418;23;20205;-89
2022/10/25 01:03:06;;;;;;;2.50;2.30;;;13.10;99.90;;;;;;6184382;23;20190;-88
2022/10/25 01:05:35;;;;;;;2.03;1.92;;;13.10;99.90;;;;;;6184614;23;20178;-88
2022/10/25 01:08:06;;;;;;;1.55;1.48;;;13.10;99.90;;;;;;6184813;23;20186;-88
2022/10/25 01:10:34;;;;;;;1.95;1.85;;;13.10;99.90;;;;;;6184224;23;20201;-88
2022/10/25 01:13:03;;;;;;;2.17;1.98;;;13.00;99.90;;;;;;6186645;23;20178;-88
2022/10/25 01:15:40;;;;;;;1.83;1.73;;;13.00;99.90;;;;;;6184994;23;20170;-88
2022/10/25 01:18:17;;;;;;;1.50;1.40;;;13.00;99.90;;;;;;6184590;23;20167;-88
2022/10/25 01:21:25;;;;;;;2.13;1.90;;;13.00;99.90;;;;;;6184471;23;20190;-88
2022/10/25 01:24:27;;;;;;;2.35;1.50;;;13.00;99.90;;;;;;6186579;23;20178;-88
2022/10/25 01:27:22;;;;;;;1.40;1.30;;;13.00;99.90;;;;;;6104310;23;20176;-86
2022/10/25 01:30:04;;;;;;;1.70;1.50;;;13.00;99.90;;;;;;6186159;23;20199;-87
2022/10/25 01:32:41;;;;;;;1.08;1.08;;;12.90;99.90;;;;;;6186631;23;20162;-88
2022/10/25 01:35:17;;;;;;;1.35;1.25;;;12.90;99.90;;;;;;6188187;23;20178;-88
2022/10/25 01:37:59;;;;;;;1.45;1.35;;;12.90;99.90;;;;;;6186397;23;20166;-88
2022/10/25 01:40:33;;;;;;;1.80;1.70;;;12.90;99.90;;;;;;6186452;23;20202;-89
2022/10/25 01:43:09;;;;;;;1.83;1.73;;;12.90;99.90;;;;;;6185993;23;20197;-88
2022/10/25 01:45:43;;;;;;;1.80;1.30;;;12.90;99.90;;;;;;6186714;23;20177;-88
2022/10/25 01:48:16;;;;;;;1.40;1.30;;;12.90;99.90;;;;;;6186116;23;20167;-88
2022/10/25 01:50:47;;;;;;;1.45;1.35;;;12.90;99.90;;;;;;6185767;23;20203;-88
2022/10/25 01:53:16;;;;;;;1.52;1.42;;;12.90;99.90;;;;;;6186534;23;20174;-87
2022/10/25 01:55:50;;;;;;;3.10;1.73;;;12.90;99.90;;;;;;6185920;23;20177;-88
2022/10/25 01:58:30;;;;;;;1.48;1.38;;;12.90;99.90;;;;;;6186415;23;20173;-87
2022/10/25 02:01:07;;;;;;;1.70;1.60;;;12.80;99.90;;;;;;6186752;23;20170;-87
2022/10/25 02:03:44;;;;;;;1.50;1.40;;;12.80;99.90;;;;;;6185998;23;20187;-88
2022/10/25 02:06:24;;;;;;;1.70;1.23;;;12.80;99.90;;;;;;6186174;23;20168;-87
2022/10/25 02:08:57;;;;;;;1.30;1.30;;;12.80;99.90;;;;;;6185952;23;20194;-87
2022/10/25 02:11:28;;;;;;;1.42;1.33;;;12.80;99.90;;;;;;6185919;23;20173;-88
2022/10/25 02:14:07;;;;;;;1.35;1.25;;;12.90;99.90;;;;;;6185898;23;20186;-88
2022/10/25 02:16:40;;;;;;;2.25;1.40;;;12.90;99.90;;;;;;6186052;23;20178;-87
2022/10/25 02:19:13;;;;;;;2.08;1.70;;;12.90;99.90;;;;;;6185741;23;20194;-88
2022/10/25 02:21:43;;;;;;;1.10;1.10;;;13.00;99.90;;;;;;6186135;23;20189;-88
2022/10/25 02:24:15;;;;;;;1.55;1.45;;;13.10;99.90;;;;;;6185814;23;20174;-88
2022/10/25 02:26:46;;;;;;;1.42;1.33;;;13.20;99.90;;;;;;6185803;23;20170;-88
2022/10/25 02:29:16;;;;;;;7.75;1.70;;;13.30;99.90;;;;;;6185735;23;20199;-88
2022/10/25 02:31:45;;;;;;;1.50;1.40;;;13.30;99.90;;;;;;6185579;23;20170;-88
2022/10/25 02:34:15;;;;;;;1.55;1.45;;;13.40;99.90;;;;;;6185682;23;20178;-88
2022/10/25 02:36:47;;;;;;;1.67;1.00;;;13.30;99.90;;;;;;6185694;23;20177;-87
2022/10/25 02:39:17;;;;;;;1.48;1.38;;;13.40;99.90;;;;;;6185068;23;20194;-88
2022/10/25 02:41:45;;;;;;;1.73;1.30;;;13.40;99.90;;;;;;6185748;23;20189;-87
2022/10/25 02:44:13;;;;;;;1.30;1.20;;;13.40;99.90;;;;;;6186130;23;20201;-87
2022/10/25 02:46:41;;;;;;;1.10;0.98;;;13.40;99.90;;;;;;6185910;23;20175;-87
2022/10/25 02:49:09;;;;;;;1.35;1.25;;;13.40;99.90;;;;;;6185582;23;20197;-87
2022/10/25 02:51:39;;;;;;;2.13;1.83;;;13.50;99.90;;;;;;6185487;23;20175;-88
2022/10/25 02:54:07;;;;;;;1.08;0.98;;;13.60;99.90;;;;;;6185752;23;20167;-88
2022/10/25 02:56:35;;;;;;;1.00;0.90;;;13.60;99.90;;;;;;6185775;23;20175;-88
2022/10/25 02:59:03;;;;;;;0.75;0.75;;;13.70;99.90;;;;;;6185158;23;20198;-88
2022/10/25 03:01:32;;;;;;;0.93;0.93;;;13.80;99.90;;;;;;6185257;23;20182;-88
2022/10/25 03:04:00;;;;;;;1.05;1.00;;;13.80;99.90;;;;;;6185263;23;20194;-88
2022/10/25 03:06:28;;;;;;;3.75;1.00;;;13.70;99.90;;;;;;6185918;23;20175;-88
2022/10/25 03:08:58;;;;;;;0.90;0.90;;;13.70;99.90;;;;;;6185257;23;20190;-88
2022/10/25 03:11:26;;;;;;;2.22;1.23;;;13.70;99.90;;;;;;6185668;23;20175;-88
2022/10/25 03:13:54;;;;;;;1.23;1.13;;;13.70;99.90;;;;;;6185216;23;20181;-88
2022/10/25 03:16:23;;;;;;;0.65;0.65;;;13.70;99.90;;;;;;6185469;23;20178;-89
2022/10/25 03:18:51;;;;;;;1.15;1.13;;;13.80;99.90;;;;;;6185091;23;20191;-88
2022/10/25 03:21:19;;;;;;;0.82;0.82;;;13.90;99.90;;;;;;6185220;23;20181;-88
2022/10/25 03:23:47;;;;;;;2.05;0.98;;;13.90;99.90;;;;;;6185374;23;20190;-88
2022/10/25 03:26:17;;;;;;;0.85;0.85;;;13.90;99.90;;;;;;6185390;23;20175;-88
2022/10/25 03:28:45;;;;;;;0.90;0.90;;;14.00;99.90;;;;;;6184480;23;20182;-88
2022/10/25 03:31:15;;;;;;;1.08;1.02;;;13.90;99.90;;;;;;6185376;23;20170;-89
2022/10/25 03:33:44;;;;;;;1.08;1.05;;;13.90;99.90;;;;;;6185646;23;20163;-88
2022/10/25 03:36:12;;;;;;;2.67;1.30;;;13.90;99.90;;;;;;6185373;23;20194;-88
2022/10/25 03:38:41;;;;;;;0.93;0.93;;;13.90;99.90;;;;;;6185026;23;20175;-87
2022/10/25 03:41:09;;;;;;;1.23;1.00;;;13.90;99.90;;;;;;6185079;23;20178;-88
2022/10/25 03:43:39;;;;;;;0.90;0.90;;;14.00;99.90;;;;;;6184945;23;20190;-87
2022/10/25 03:46:07;;;;;;;1.38;1.27;;;13.90;99.90;;;;;;6184608;23;20174;-88
2022/10/25 03:48:36;;;;;;;1.27;1.08;;;13.90;99.90;;;;;;6184813;23;20181;-88
2022/10/25 03:51:04;;;;;;;3.22;1.00;;;14.00;99.90;;;;;;6184998;23;20186;-88
2022/10/25 03:53:33;;;;;;;0.80;0.80;;;14.00;99.90;;;;;;6185163;23;20170;-88
2022/10/25 03:56:01;;;;;;;1.63;1.48;;;14.20;99.90;;;;;;6185136;23;20171;-88
2022/10/25 03:58:29;;;;;;;1.10;1.10;;;14.30;99.90;;;;;;6184573;23;20174;-88
2022/10/25 04:00:59;;;;;;;2.25;1.58;;;14.30;99.90;;;;;;6185712;23;20171;-88
2022/10/25 04:03:28;;;;;;;1.52;1.42;;;14.20;99.90;;;;;;6188767;23;20217;-88
2022/10/25 04:05:56;;;;;;;1.20;1.17;;;14.20;99.90;;;;;;6184925;23;20174;-87
2022/10/25 04:08:24;;;;;;;2.00;1.15;;;14.20;99.90;;;;;;6184765;23;20201;-88
2022/10/25 04:10:53;;;;;;;3.00;1.75;;;14.10;99.90;;;;;;6184492;23;20199;-88
2022/10/25 04:13:21;;;;;;;1.50;1.40;;;14.00;99.90;;;;;;6184792;23;20178;-88
2022/10/25 04:15:49;;;;;;;1.30;1.20;;;14.00;99.90;;;;;;6184856;23;20174;-87
2022/10/25 04:18:19;;;;;;;1.02;1.02;;;13.90;99.90;;;;;;6184779;23;20177;-88
2022/10/25 04:20:47;;;;;;;2.15;1.42;;;13.90;99.90;;;;;;6184968;23;20197;-89
2022/10/25 04:23:16;;;;;;;2.83;1.92;;;13.80;99.90;;;;;;6184686;23;20187;-88
2022/10/25 04:25:44;;;;;;;1.38;1.27;;;13.80;99.90;;;;;;6184829;23;20174;-87
2022/10/25 04:28:12;;;;;;;3.88;1.42;;;13.80;99.90;;;;;;6184646;23;20182;-89
2022/10/25 04:30:40;;;;;;;1.92;1.25;;;13.80;99.90;;;;;;6184880;23;20190;-88
2022/10/25 04:33:09;;;;;;;1.23;1.23;;;13.80;99.90;;;;;;6184793;23;20179;-88
2022/10/25 04:35:38;;;;;;;1.48;1.08;;;13.90;99.90;;;;;;6184217;23;20171;-88
2022/10/25 04:38:06;;;;;;;2.85;1.30;;;13.90;99.90;;;;;;6184751;23;20177;-88
2022/10/25 04:40:34;;;;;;;1.70;1.27;;;14.00;99.90;;;;;;6184469;23;20194;-88
2022/10/25 04:43:03;;;;;;;2.30;0.75;;;14.00;99.90;;;;;;6184711;23;20174;-88
2022/10/25 04:45:31;;;;;;;1.00;0.93;;;14.10;99.90;;;;;;6184541;23;20170;-88
2022/10/25 04:48:00;;;;;;;0.88;0.82;;;14.20;99.90;;;;;;6184346;23;20177;-89
2022/10/25 04:50:28;;;;;;;1.02;1.02;;;14.20;99.90;;;;;;6184557;23;20217;-88
2022/10/25 04:52:58;;;;;;;0.65;0.65;;;14.30;99.90;;;;;;6184763;23;20174;-91
2022/10/25 04:55:26;;;;;;;1.10;1.02;;;14.20;99.90;;;;;;6184661;23;20181;-90
2022/10/25 04:57:54;;;;;;;0.65;0.65;;;14.20;99.90;;;;;;6186599;23;20174;-91
2022/10/25 05:00:22;;;;;;;4.80;1.48;;;14.20;99.90;;;;;;6186400;23;20190;-90
2022/10/25 05:02:51;;;;;;;1.67;1.13;;;14.20;99.90;;;;;;6186415;23;20178;-91
2022/10/25 05:05:21;;;;;;;0.93;0.90;;;14.20;99.90;;;;;;6186950;23;20272;-90
2022/10/25 05:07:49;;;;;;;3.78;1.05;;;14.30;99.90;;;;;;6186740;23;20174;-90
2022/10/25 05:10:19;;;;;;;0.95;0.95;;;14.40;99.90;;;;;;6186235;23;20190;-90
2022/10/25 05:12:47;;;;;;;2.15;1.08;;;14.40;99.90;;;;;;6186341;23;20174;-90
2022/10/25 05:15:16;;;;;;;1.10;1.00;;;14.50;99.90;;;;;;6186110;23;20246;-91
2022/10/25 05:17:44;;;;;;;1.50;1.40;;;14.60;99.90;;;;;;6186080;23;20175;-90
2022/10/25 05:20:12;;;;;;;1.30;1.15;;;14.60;99.90;;;;;;6186195;23;20194;-90
2022/10/25 05:22:41;;;;;;;5.57;1.67;;;14.60;99.90;;;;;;6186349;23;20170;-90
2022/10/25 05:25:09;;;;;;;1.30;1.20;;;14.60;99.90;;;;;;6186660;23;20190;-89
2022/10/25 05:27:39;;;;;;;1.10;1.10;;;14.60;99.90;;;;;;6186834;23;20177;-90
2022/10/25 05:30:09;;;;;;;1.60;1.30;;;14.60;99.90;;;;;;6186279;23;20198;-91
2022/10/25 05:32:37;;;;;;;1.27;1.27;;;14.60;99.90;;;;;;6186236;23;20178;-90
2022/10/25 05:35:06;;;;;;;1.20;1.10;;;14.60;99.90;;;;;;6186416;23;20177;-91
2022/10/25 05:37:34;;;;;;;1.95;1.55;;;14.60;99.90;;;;;;6186320;23;20185;-91
2022/10/25 05:40:02;;;;;;;2.00;1.40;;;14.60;99.90;;;;;;6186166;23;20194;-90
2022/10/25 05:42:30;;;;;;;1.63;1.50;;;14.60;99.90;;;;;;6186185;23;20182;-91
2022/10/25 05:45:00;;;;;;;3.83;1.70;;;14.60;99.90;;;;;;6186352;23;20197;-91
2022/10/25 05:47:29;;;;;;;1.20;1.10;;;14.60;99.90;;;;;;6186950;23;20266;-90
2022/10/25 05:49:57;;;;;;;6.45;1.45;;;14.60;99.90;;;;;;6185576;23;20197;-90
2022/10/25 05:52:25;;;;;;;0.95;0.95;;;14.60;99.90;;;;;;6186253;23;20181;-91
2022/10/25 05:54:53;;;;;;;1.65;1.13;;;14.50;99.90;;;;;;6186318;23;20182;-91
2022/10/25 05:57:21;;;;;;;1.70;1.60;;;14.50;99.90;;;;;;6185904;23;20175;-91
2022/10/25 05:59:49;;;;;;;1.40;1.30;;;14.40;99.90;;;;;;6186052;23;20194;-91
2022/10/25 06:02:20;;;;;;;1.63;1.52;;;14.40;99.90;;;;;;6186495;23;20171;-90
2022/10/25 06:04:48;;;;;;;1.52;1.42;;;14.40;99.90;;;;;;6185939;23;20261;-90
2022/10/25 06:07:19;;;;;;;1.80;1.25;;;14.30;99.90;;;;;;6185856;23;20178;-90
2022/10/25 06:09:47;;;;;;;0.98;0.70;;;14.40;99.90;;;;;;6185736;23;20190;-90
2022/10/25 06:12:16;;;;;;;1.13;1.10;;;14.30;99.90;;;;;;6185873;23;20170;-91
2022/10/25 06:14:44;;;;;;;1.30;1.20;;;14.30;99.90;;;;;;6185835;23;20182;-90
2022/10/25 06:17:12;;;;;;;2.00;1.58;;;14.30;99.90;;;;;;6185716;23;20177;-90
2022/10/25 06:19:42;;;;;;;5.30;1.90;;;14.30;99.90;;;;;;6185758;23;20214;-91
2022/10/25 06:22:10;;;;;;;1.80;1.70;;;14.40;99.90;;;;;;6186050;23;20171;-91
2022/10/25 06:24:38;;;;;;;2.17;1.70;;;14.30;99.90;;;;;;6185661;23;20186;-90
2022/10/25 06:27:07;;;;;;;1.70;1.40;;;14.30;99.90;;;;;;6185679;23;20181;-91
2022/10/25 06:29:35;;;;;;;1.27;1.17;;;14.30;99.90;;;;;;6185467;23;20200;-91
2022/10/25 06:32:04;;;;;;;1.25;1.20;;;14.30;99.90;;;;;;6185942;23;20206;-91
2022/10/25 06:34:32;;;;;;;4.10;1.70;;;14.30;99.90;;;;;;6185929;23;20186;-90
2022/10/25 06:37:02;;;;;;;1.75;1.20;;;14.40;99.90;;;;;;6186153;23;20171;-91
2022/10/25 06:39:30;;;;;;;3.63;1.33;;;14.40;99.90;;;;;;6185370;23;20206;-90
2022/10/25 06:41:58;;;;;;;1.30;1.20;;;14.40;99.90;;;;;;6185854;23;20174;-91
2022/10/25 06:44:26;;;;;;;2.78;1.42;;;14.40;99.90;;;;;;6185204;23;20197;-90
2022/10/25 06:46:55;;;;;;;1.27;1.17;;;14.50;99.90;;;;;;6185669;23;20174;-91
2022/10/25 06:49:43;;;;;;;0.85;0.85;;;14.60;99.90;;;;;;6185321;23;20255;-90
2022/10/25 06:52:13;;;;;;;1.15;1.08;;;14.60;99.90;;;;;;6185944;23;20170;-91
2022/10/25 06:54:41;;;;;;;1.15;1.10;;;14.70;99.90;;;;;;6186210;23;20166;-90
2022/10/25 06:57:09;;;;;;;1.00;1.00;;;14.70;99.90;;;;;;6185880;23;20178;-91
2022/10/25 06:59:38;;;;;;;1.25;1.08;;;14.80;99.90;;;;;;6185416;23;20197;-90
2022/10/25 07:02:06;;;;;;;0.95;0.95;;;14.90;99.90;;;;;;6185910;23;20175;-91
2022/10/25 07:04:34;;;;;;;1.13;1.08;;;14.90;99.90;;;;;;6185661;23;20249;-90
2022/10/25 07:07:03;;;;;;;2.42;0.90;;;15.00;99.90;;;;;;6185630;23;20182;-91
2022/10/25 07:09:32;;;;;;;1.30;1.20;;;15.10;99.90;;;;;;6194111;23;20199;-90
2022/10/25 07:12:00;;;;;;;1.00;1.00;;;15.10;99.90;;;;;;6208121;23;20165;-90
2022/10/25 07:14:29;;;;;;;0.80;0.77;;;15.10;99.90;;;;;;6189431;23;20184;-90
2022/10/25 07:16:57;;;;;;;0.60;0.60;;;15.10;99.90;;;;;;6185701;23;20201;-91
2022/10/25 07:19:26;;;;;;;1.08;1.05;;;15.20;99.90;;;;;;6184940;23;20257;-91
2022/10/25 07:21:54;;;;;;;1.73;1.02;;;15.20;99.90;;;;;;6185339;23;20175;-91
2022/10/25 07:24:23;;;;;;;2.20;1.33;;;15.20;99.90;;;;;;6185434;23;20170;-91
2022/10/25 07:26:52;;;;;;;1.20;1.10;;;15.20;99.90;;;;;;6185627;23;20176;-91
2022/10/25 07:29:21;;;;;;;1.75;1.30;;;15.30;99.90;;;;;;6185168;23;20190;-91
2022/10/25 07:31:49;;;;;;;0.73;0.73;;;15.30;99.90;;;;;;6185014;23;20186;-91
2022/10/25 07:34:19;;;;;;;0.80;0.80;;;15.40;99.90;;;;;;6185359;23;20178;-91
2022/10/25 07:36:47;;;;;;;0.70;0.70;;;15.50;99.90;;;;;;6185009;23;20166;-90
2022/10/25 07:39:15;;;;;;;0.68;0.68;;;15.60;99.90;;;;;;6185002;23;20194;-91
2022/10/25 07:41:43;;;;;;;0.63;0.63;;;15.60;99.90;;;;;;6185536;23;20175;-90
2022/10/25 07:44:13;;;;;;;0.90;0.90;;;15.70;99.90;;;;;;6184768;23;20182;-91
2022/10/25 07:46:47;;;;;;;1.67;1.30;;;15.70;99.90;;;;;;6185402;23;20199;-91
2022/10/25 07:49:16;;;;;;;0.40;0.40;;;15.70;99.90;;;;;;6184449;23;20194;-91
2022/10/25 07:51:44;;;;;;;0.70;0.70;;;15.80;99.90;;;;;;6184800;23;20171;-92
2022/10/25 07:54:12;;;;;;;1.77;0.95;;;15.80;99.90;;;;;;6185423;23;20170;-91
2022/10/25 07:56:40;;;;;;;0.88;0.73;;;15.80;99.90;;;;;;6185138;23;20167;-91
2022/10/25 07:59:09;;;;;;;1.15;0.80;;;15.90;99.90;;;;;;6184613;23;20199;-91
2022/10/25 08:01:39;;;;;;;0.70;0.70;;;15.90;99.90;;;;;;6185286;23;20257;-92
2022/10/25 08:04:07;;;;;;;0.80;0.80;;;16.00;99.90;;;;;;6185013;23;20178;-91
2022/10/25 08:06:35;;;;;;;0.52;0.50;;;16.00;99.90;;;;;;6185054;23;20194;-91
2022/10/25 08:09:04;;;;;;;0.95;0.65;;;16.00;99.90;;;;;;6184387;23;20191;-91
2022/10/25 08:11:52;;;;;;;0.93;0.65;;;16.10;99.90;;;;;;6185173;23;20171;-91
2022/10/25 08:14:21;;;;;;;1.40;0.85;;;16.10;99.90;;;;;;6184510;23;20178;-91
2022/10/25 08:16:50;;;;;;;2.67;0.88;;;16.10;99.90;;;;;;6185131;23;20194;-90
2022/10/25 08:19:19;;;;;;;0.50;0.50;;;16.20;99.90;;;;;;6184434;23;20195;-90
2022/10/25 08:21:47;;;;;;;0.80;0.60;;;16.20;99.90;;;;;;6184971;23;20239;-91
2022/10/25 08:24:15;;;;;;;0.80;0.80;;;16.30;99.90;;;;;;6185034;23;20177;-90
2022/10/25 08:26:44;;;;;;;2.15;1.08;;;16.30;99.90;;;;;;6184352;23;20194;-91
2022/10/25 08:29:12;;;;;;;0.65;0.65;;;16.40;99.90;;;;;;6184869;23;20198;-91
2022/10/25 08:31:40;;;;;;;1.20;1.10;;;16.50;99.90;;;;;;6184620;23;20170;-91
2022/10/25 08:34:10;;;;;;;1.77;0.90;;;16.50;99.90;;;;;;6185047;23;20185;-91
2022/10/25 08:36:38;;;;;;;1.10;1.00;;;16.60;99.90;;;;;;6185150;23;20253;-91
2022/10/25 08:39:06;;;;;;;0.80;0.80;;;16.70;99.90;;;;;;6184233;23;20246;-90
2022/10/25 08:41:45;;;;;;;0.80;0.80;;;16.80;99.90;;;;;;6184881;23;20174;-90
2022/10/25 08:44:30;;;;;;;0.88;0.88;;;16.90;99.90;;;;;;6185058;23;20178;-91
2022/10/25 08:47:03;;;;;;;3.17;1.00;;;17.00;99.90;;;;;;6184402;23;20198;-91
2022/10/25 08:49:43;;;;;;;2.28;0.80;;;17.00;99.90;;;;;;6184658;23;20208;-91
2022/10/25 08:52:18;;;;;;;0.73;0.73;;;17.10;99.90;;;;;;6184855;23;20218;-91
2022/10/25 08:54:48;;;;;;;0.57;0.57;;;17.20;99.90;;;;;;6184576;23;20167;-92
2022/10/25 08:57:22;;;;;;;0.77;0.77;;;17.30;99.90;;;;;;6184627;23;20196;-91
2022/10/25 08:59:54;;;;;;;1.30;1.05;;;17.40;99.90;;;;;;6184583;23;20197;-91
2022/10/25 09:02:32;;;;;;;0.82;0.82;;;17.50;99.90;;;;;;6184844;23;20180;-90
2022/10/25 09:05:02;;;;;;;1.00;0.90;;;17.60;99.90;;;;;;6184991;23;20174;-91
2022/10/25 09:08:08;;;;;;;1.23;1.00;;;17.70;99.90;;;;;;6184230;23;20197;-91
2022/10/25 09:10:49;;;;;;;2.28;1.02;;;17.70;99.90;;;;;;6180015;23;20194;-91
2022/10/25 09:13:30;;;;;;;0.73;0.73;;;17.80;99.90;;;;;;6184145;23;20186;-91
2022/10/25 09:16:09;;;;;;;1.17;1.00;;;17.90;99.90;;;;;;6184747;23;20178;-91
2022/10/25 09:18:44;;;;;;;0.80;0.80;;;18.10;99.90;;;;;;6184511;23;20371;-91
2022/10/25 09:21:18;;;;;;;1.00;0.90;;;18.20;99.90;;;;;;6184580;23;20182;-91
2022/10/25 09:24:13;;;;;;;0.98;0.98;;;18.30;99.90;;;;;;6184566;23;20177;-91
2022/10/25 09:26:46;;;;;;;1.13;1.02;;;18.40;99.90;;;;;;6184612;23;20213;-91
2022/10/25 09:29:24;;;;;;;0.77;0.60;;;18.50;99.90;;;;;;6183868;23;20201;-91
2022/10/25 09:31:56;;;;;;;0.70;0.63;;;18.60;99.90;;;;;;6185030;23;20174;-91
2022/10/25 09:34:27;;;;;;;1.10;1.00;;;18.50;99.90;;;;;;6184565;23;20175;-91
2022/10/25 09:37:03;;;;;;;1.67;1.00;;;18.50;99.90;;;;;;6185019;23;20170;-92
2022/10/25 09:39:41;;;;;;;1.05;0.95;;;18.50;99.90;;;;;;6184321;23;20200;-92
2022/10/25 09:42:17;;;;;;;1.33;0.90;;;18.50;99.90;;;;;;6184809;23;20245;-91
2022/10/25 09:44:50;;;;;;;1.52;1.20;;;18.50;99.90;;;;;;6186287;23;20166;-91
2022/10/25 09:47:28;;;;;;;1.48;1.02;;;18.60;99.90;;;;;;6186408;23;20191;-91
2022/10/25 09:50:01;;;;;;;0.93;0.93;;;18.60;99.90;;;;;;6185786;23;20190;-91
2022/10/25 09:52:42;;;;;;;0.90;0.88;;;18.70;99.90;;;;;;6186372;23;20245;-91
2022/10/25 09:55:31;;;;;;;1.58;0.73;;;18.80;99.90;;;;;;6186610;23;20166;-91
2022/10/25 09:58:01;;;;;;;2.47;1.13;;;19.00;99.90;;;;;;6186610;23;20170;-92
2022/10/25 10:00:29;;;;;;;0.50;0.50;;;19.00;99.90;;;;;;6185960;23;20197;-91
2022/10/25 10:02:57;;;;;;;1.15;1.05;;;19.10;99.90;;;;;;6186155;23;20170;-91
2022/10/25 10:05:26;;;;;;;1.17;1.08;;;19.10;99.90;;;;;;6186607;23;20171;-92
2022/10/25 10:07:56;;;;;;;1.25;0.93;;;19.20;99.90;;;;;;6186023;23;20194;-92
2022/10/25 10:10:29;;;;;;;0.98;0.88;;;19.20;99.90;;;;;;6186275;23;20197;-91
2022/10/25 10:13:01;;;;;;;1.02;1.02;;;19.30;99.90;;;;;;6186242;23;20167;-92
2022/10/25 10:15:35;;;;;;;1.48;0.90;;;19.60;99.90;;;;;;6156449;23;20194;-91
2022/10/25 10:18:23;;;;;;;0.68;0.68;;;19.90;99.90;;;;;;6171392;23;20151;-93
2022/10/25 10:21:12;;;;;;;0.70;0.70;;;20.00;99.90;;;;;;6178534;23;20183;-92
2022/10/25 10:23:50;;;;;;;0.77;0.77;;;20.20;99.90;;;;;;6156358;23;20173;-92
2022/10/25 10:26:23;;;;;;;0.70;0.70;;;20.10;99.90;;;;;;6156356;23;20166;-92
2022/10/25 10:29:04;;;;;;;0.45;0.40;;;20.00;99.90;;;;;;6160519;23;20192;-92
2022/10/25 10:31:38;;;;;;;0.75;0.75;;;20.00;99.90;;;;;;6156584;23;20238;-92
2022/10/25 10:34:20;;;;;;;0.80;0.80;;;19.80;99.90;;;;;;6156538;23;20170;-91
2022/10/25 10:37:02;;;;;;;0.88;0.88;;;19.80;99.90;;;;;;6155920;23;20209;-91
2022/10/25 10:39:32;;;;;;;1.25;1.15;;;19.90;99.90;;;;;;6156116;23;20198;-91
2022/10/25 10:42:03;;;;;;;0.60;0.52;;;20.10;99.90;;;;;;6155708;23;20187;-92
2022/10/25 10:44:33;;;;;;;2.15;0.90;;;20.30;99.90;;;;;;6156208;23;20171;-91
2022/10/25 10:47:09;;;;;;;0.68;0.68;;;20.60;99.90;;;;;;6156054;23;20198;-92
2022/10/25 10:49:41;;;;;;;0.73;0.73;;;20.80;99.90;;;;;;6155605;23;20191;-93
2022/10/25 10:52:28;;;;;;;0.82;0.82;;;21.00;99.90;;;;;;6161904;23;20171;-91
2022/10/25 10:55:00;;;;;;;1.90;1.05;;;21.50;99.90;;;;;;6156031;23;20258;-91
2022/10/25 10:57:32;;;;;;;0.80;0.80;;;21.60;99.90;;;;;;6155992;23;20177;-92
2022/10/25 11:00:01;;;;;;;0.80;0.80;;;21.40;99.90;;;;;;6155703;23;20199;-92
2022/10/25 11:02:39;;;;;;;1.27;1.15;;;21.40;99.90;;;;;;6156093;23;20226;-91
2022/10/25 11:05:20;;;;;;;0.55;0.55;;;21.30;99.90;;;;;;6156303;23;20170;-93
2022/10/25 11:07:55;;;;;;;0.75;0.68;;;21.40;99.90;;;;;;6155649;23;20191;-91
2022/10/25 11:10:30;;;;;;;0.77;0.77;;;21.60;99.90;;;;;;6155450;23;20201;-92
2022/10/25 11:13:11;;;;;;;1.23;0.95;;;21.70;99.90;;;;;;6155966;23;20261;-92
2022/10/25 11:16:17;;;;;;;2.20;0.88;;;21.90;99.90;;;;;;6185284;23;20286;-92
2022/10/25 11:18:54;;;;;;;0.98;0.98;;;22.10;99.90;;;;;;6185225;23;20178;-92
2022/10/25 11:21:38;;;;;;;1.35;1.17;;;22.50;99.90;;;;;;6185554;23;20237;-91
2022/10/25 11:24:20;;;;;;;1.00;0.90;;;22.60;99.90;;;;;;6185306;23;20206;-91
2022/10/25 11:26:57;;;;;;;0.88;0.88;;;23.00;99.90;;;;;;6185354;23;20179;-91
2022/10/25 11:29:43;;;;;;;1.35;1.13;;;22.80;99.90;;;;;;6185080;23;20194;-91
2022/10/25 11:32:42;;;;;;;0.70;0.70;;;23.00;99.90;;;;;;6185268;23;20162;-91
2022/10/25 11:35:28;;;;;;;0.95;0.95;;;22.90;99.90;;;;;;6185411;23;20162;-91
2022/10/25 11:38:02;;;;;;;1.00;1.00;;;23.60;99.90;;;;;;6185832;23;20214;-91
2022/10/25 11:40:37;;;;;;;1.02;1.02;;;23.80;99.90;;;;;;6185090;23;20274;-91
2022/10/25 11:43:23;;;;;;;0.93;0.93;;;23.90;99.90;;;;;;6185348;23;20216;-91
2022/10/25 11:45:59;;;;;;;0.90;0.90;;;23.80;99.90;;;;;;6185108;23;20173;-91
2022/10/25 11:48:43;;;;;;;2.05;1.13;;;23.50;99.90;;;;;;6184447;23;20186;-91
2022/10/25 11:51:22;;;;;;;0.80;0.80;;;23.40;99.90;;;;;;6185202;23;20171;-91
2022/10/25 11:54:04;;;;;;;1.27;1.17;;;23.40;99.90;;;;;;6185083;23;20171;-91
2022/10/25 11:56:39;;;;;;;1.30;1.20;;;23.10;99.90;;;;;;6185230;23;20180;-91
2022/10/25 11:59:18;;;;;;;1.33;1.23;;;23.10;99.90;;;;;;6184618;23;20186;-92
2022/10/25 12:02:01;;;;;;;1.30;1.20;;;23.30;99.90;;;;;;6185393;23;20250;-91
2022/10/25 12:05:00;;;;;;;1.65;1.27;;;23.60;99.90;;;;;;6185113;23;20234;-91
2022/10/25 12:07:38;;;;;;;1.45;1.33;;;23.90;99.90;;;;;;6184944;23;20223;-91
2022/10/25 12:10:16;;;;;;;1.30;1.20;;;24.30;99.80;;;;;;6184541;23;20197;-91
2022/10/25 12:12:49;;;;;;;1.05;0.95;;;24.30;99.60;;;;;;6185227;23;20173;-91
2022/10/25 12:15:24;;;;;;;0.93;0.93;;;23.90;99.50;;;;;;6184763;23;20209;-91
2022/10/25 12:17:53;;;;;;;2.20;1.23;;;24.00;99.20;;;;;;6184400;23;20162;-91
2022/10/25 12:20:25;;;;;;;3.55;1.58;;;24.10;99.20;;;;;;6184720;23;20194;-91
2022/10/25 12:22:57;;;;;;;1.02;0.93;;;23.80;99.60;;;;;;6184671;23;20170;-90
2022/10/25 12:25:30;;;;;;;1.30;1.23;;;24.00;99.10;;;;;;6184468;23;20170;-91
2022/10/25 12:28:05;;;;;;;1.13;0.93;;;23.90;99.80;;;;;;6185234;23;20194;-91
2022/10/25 12:30:36;;;;;;;1.45;1.35;;;23.90;99.20;;;;;;6184586;23;20217;-91
2022/10/25 12:33:15;;;;;;;1.40;1.30;;;24.40;99.20;;;;;;6184902;23;20202;-91
2022/10/25 12:35:50;;;;;;;1.23;1.13;;;24.90;98.30;;;;;;6184862;23;20253;-92
2022/10/25 12:38:25;;;;;;;1.67;1.40;;;25.10;98.00;;;;;;6185338;23;20162;-92
2022/10/25 12:41:00;;;;;;;2.08;1.52;;;24.60;97.70;;;;;;6184765;23;20174;-92
2022/10/25 12:43:34;;;;;;;1.15;1.15;;;24.20;97.80;;;;;;6185052;23;20169;-92
2022/10/25 12:46:50;;;;;;;2.78;1.40;;;24.00;98.70;;;;;;6184987;23;20185;-93
2022/10/25 12:49:47;;;;;;;2.15;1.30;;;24.20;98.40;;;;;;6183899;23;20198;-92
2022/10/25 12:52:25;;;;;;;3.25;1.30;;;24.30;98.20;;;;;;6184468;23;20238;-92
2022/10/25 12:55:08;;;;;;;0.90;0.90;;;23.90;98.20;;;;;;6185167;23;20189;-92
2022/10/25 12:57:46;;;;;;;1.95;1.23;;;23.80;98.70;;;;;;6184847;23;20166;-91
2022/10/25 13:00:18;;;;;;;3.03;1.20;;;23.80;98.50;;;;;;6184470;23;20201;-91
2022/10/25 13:03:27;;;;;;;2.00;1.40;;;23.70;98.70;;;;;;6185109;23;20213;-91
2022/10/25 13:06:09;;;;;;;1.67;1.13;;;24.10;98.40;;;;;;6184766;23;20201;-92
2022/10/25 13:08:39;;;;;;;1.85;1.50;;;24.50;98.50;;;;;;6184434;23;20189;-91
2022/10/25 13:11:09;;;;;;;1.55;1.20;;;25.00;98.70;;;;;;6185033;23;20167;-91
2022/10/25 13:13:40;;;;;;;1.52;1.10;;;25.20;97.40;;;;;;6184768;23;20186;-91
2022/10/25 13:16:10;;;;;;;2.65;1.40;;;24.90;97.10;;;;;;6184689;23;20170;-94